createdAt,value
2023-05-23T00:02:18.783Z,44.22
2023-05-23T00:04:46.189Z,61.35
2023-05-23T00:07:13.458Z,47.88
2023-05-23T00:09:40.696Z,45.35
2023-05-23T00:12:08.754Z,42.33
2023-05-23T00:14:36.099Z,43.72
2023-05-23T00:17:03.659Z,37.67
2023-05-23T00:19:36.494Z,50.30
2023-05-23T00:22:04.404Z,39.40
2023-05-23T00:24:31.662Z,46.65
2023-05-23T00:26:59.045Z,33.90
2023-05-23T00:29:26.334Z,42.13
2023-05-23T00:31:53.603Z,44.25
2023-05-23T00:34:20.850Z,36.28
2023-05-23T00:36:50.259Z,39.20
2023-05-23T00:39:21.043Z,41.33
2023-05-23T00:41:53.187Z,57.72
2023-05-23T00:44:22.100Z,43.08
2023-05-23T00:46:56.646Z,54.00
2023-05-23T00:49:24.789Z,44.00
2023-05-23T00:51:52.583Z,43.97
2023-05-23T00:54:31.359Z,41.28
2023-05-23T00:56:59.630Z,58.70
2023-05-23T00:59:27.350Z,55.85
2023-05-23T01:01:57.289Z,43.40
2023-05-23T01:04:28.239Z,41.78
2023-05-23T01:06:56.536Z,40.45
2023-05-23T01:09:30.882Z,45.60
2023-05-23T01:14:59.940Z,43.90
2023-05-23T01:17:55.543Z,39.35
2023-05-23T01:20:30.234Z,47.03
2023-05-23T01:23:00.924Z,44.22
2023-05-23T01:26:02.696Z,44.42
2023-05-23T01:28:45.703Z,41.65
2023-05-23T01:31:14.087Z,41.10
2023-05-23T01:33:42.087Z,40.30
2023-05-23T01:36:13.414Z,40.63
2023-05-23T01:38:40.608Z,42.22
2023-05-23T01:41:07.811Z,52.25
2023-05-23T01:43:35.564Z,45.38
2023-05-23T01:46:04.867Z,45.30
2023-05-23T01:48:32.972Z,46.63
2023-05-23T01:51:00.384Z,39.92
2023-05-23T01:53:28.968Z,41.10
2023-05-23T01:55:56.459Z,47.47
2023-05-23T01:58:23.988Z,40.75
2023-05-23T02:00:51.619Z,44.28
2023-05-23T02:03:19.320Z,47.28
2023-05-23T02:05:46.664Z,44.17
2023-05-23T02:08:13.908Z,45.63
2023-05-23T02:10:41.323Z,45.30
2023-05-23T02:13:08.896Z,44.72
2023-05-23T02:15:36.201Z,47.03
2023-05-23T02:18:04.271Z,44.85
2023-05-23T02:20:31.715Z,43.95
2023-05-23T02:22:59.107Z,49.88
2023-05-23T02:25:26.746Z,47.70
2023-05-23T02:27:54.185Z,48.25
2023-05-23T02:32:51.611Z,45.10
2023-05-23T02:35:19.026Z,48.42
2023-05-23T02:37:46.272Z,50.03
2023-05-23T02:40:13.913Z,46.42
2023-05-23T02:42:41.796Z,49.47
2023-05-23T02:45:10.035Z,47.35
2023-05-23T02:47:37.875Z,46.47
2023-05-23T02:50:06.452Z,42.13
2023-05-23T02:52:34.114Z,50.45
2023-05-23T02:55:01.866Z,48.00
2023-05-23T02:57:31.644Z,49.17
2023-05-23T02:59:58.904Z,49.83
2023-05-23T03:02:27.249Z,53.17
2023-05-23T03:04:56.023Z,46.03
2023-05-23T03:07:27.989Z,50.03
2023-05-23T03:09:56.568Z,57.13
2023-05-23T03:12:23.721Z,51.75
2023-05-23T03:14:51.003Z,43.05
2023-05-23T03:17:18.344Z,45.28
2023-05-23T03:19:45.995Z,43.13
2023-05-23T03:22:13.253Z,44.97
2023-05-23T03:24:40.546Z,45.55
2023-05-23T03:27:07.744Z,46.95
2023-05-23T03:29:34.984Z,64.38
2023-05-23T03:32:03.099Z,61.03
2023-05-23T03:34:30.481Z,46.90
2023-05-23T03:36:57.855Z,45.60
2023-05-23T03:39:25.549Z,49.50
2023-05-23T03:41:52.964Z,51.10
2023-05-23T03:44:20.824Z,53.53
2023-05-23T03:46:48.368Z,48.90
2023-05-23T03:49:17.354Z,48.75
2023-05-23T03:51:44.755Z,46.75
2023-05-23T03:54:17.535Z,52.58
2023-05-23T03:56:44.830Z,50.15
2023-05-23T03:59:12.081Z,52.63
2023-05-23T04:01:39.693Z,49.30
2023-05-23T04:04:07.240Z,43.72
2023-05-23T04:06:37.265Z,48.42
2023-05-23T04:09:06.318Z,48.97
2023-05-23T04:11:37.184Z,47.47
2023-05-23T04:14:04.470Z,45.00
2023-05-23T04:16:33.214Z,59.45
2023-05-23T04:19:04.810Z,49.05
2023-05-23T04:21:34.515Z,47.90
2023-05-23T04:24:07.067Z,45.05
2023-05-23T04:26:36.285Z,45.25
2023-05-23T04:29:06.134Z,48.17
2023-05-23T04:31:34.277Z,50.88
2023-05-23T04:34:02.651Z,47.45
2023-05-23T04:36:30.623Z,48.25
2023-05-23T04:38:57.981Z,47.03
2023-05-23T04:41:25.244Z,52.70
2023-05-23T04:44:06.186Z,59.25
2023-05-23T04:46:53.806Z,67.75
2023-05-23T04:49:25.528Z,58.78
2023-05-23T04:51:52.931Z,87.10
2023-05-23T04:54:28.178Z,79.45
2023-05-23T04:56:56.853Z,62.47
2023-05-23T04:59:26.709Z,61.60
2023-05-23T05:01:53.993Z,64.32
2023-05-23T05:04:23.377Z,57.55
2023-05-23T05:06:52.541Z,58.60
2023-05-23T05:09:20.008Z,72.90
2023-05-23T05:11:47.301Z,63.40
2023-05-23T05:14:15.453Z,69.50
2023-05-23T05:16:42.893Z,74.65
2023-05-23T05:19:11.024Z,87.17
2023-05-23T05:21:38.508Z,63.20
2023-05-23T05:24:05.951Z,65.18
2023-05-23T05:26:33.539Z,67.72
2023-05-23T05:29:00.899Z,67.78
2023-05-23T05:31:29.154Z,79.10
2023-05-23T05:36:23.794Z,75.85
2023-05-23T05:38:51.316Z,58.97
2023-05-23T05:41:20.554Z,59.42
2023-05-23T05:43:50.972Z,58.15
2023-05-23T05:46:18.680Z,56.55
2023-05-23T05:48:47.351Z,60.65
2023-05-23T05:51:16.285Z,47.95
2023-05-23T05:53:43.773Z,42.80
2023-05-23T05:56:11.118Z,58.55
2023-05-23T05:58:39.860Z,45.50
2023-05-23T06:03:42.939Z,55.60
2023-05-23T06:06:10.449Z,51.13
2023-05-23T06:08:39.864Z,42.70
2023-05-23T06:11:12.020Z,56.83
2023-05-23T06:13:39.528Z,51.00
2023-05-23T06:16:07.286Z,46.47
2023-05-23T06:18:34.570Z,50.97
2023-05-23T06:21:01.781Z,41.25
2023-05-23T06:23:29.140Z,46.97
2023-05-23T06:25:59.209Z,40.40
2023-05-23T06:28:26.453Z,42.53
2023-05-23T06:30:53.655Z,44.83
2023-05-23T06:33:20.902Z,39.95
2023-05-23T06:35:49.580Z,50.00
2023-05-23T06:38:17.892Z,60.47
2023-05-23T06:40:45.307Z,41.95
2023-05-23T06:43:13.701Z,49.25
2023-05-23T06:45:48.910Z,51.08
2023-05-23T06:48:16.350Z,47.97
2023-05-23T06:50:44.831Z,49.65
2023-05-23T06:53:12.732Z,59.55
2023-05-23T06:55:41.396Z,43.55
2023-05-23T06:58:11.979Z,46.85
2023-05-23T07:00:39.576Z,50.08
2023-05-23T07:03:16.704Z,62.92
2023-05-23T07:05:44.693Z,48.50
2023-05-23T07:08:13.084Z,44.65
2023-05-23T07:10:43.961Z,47.05
2023-05-23T07:13:31.594Z,46.05
2023-05-23T07:15:59.596Z,40.67
2023-05-23T07:18:27.384Z,39.55
2023-05-23T07:20:55.408Z,39.60
2023-05-23T07:23:24.490Z,48.25
2023-05-23T07:26:02.044Z,37.53
2023-05-23T07:28:49.394Z,40.50
2023-05-23T07:33:45.274Z,41.17
2023-05-23T07:36:18.007Z,36.80
2023-05-23T07:38:45.996Z,33.67
2023-05-23T07:41:13.233Z,34.20
2023-05-23T07:43:41.385Z,33.80
2023-05-23T07:46:09.173Z,34.67
2023-05-23T07:48:38.048Z,39.78
2023-05-23T07:51:06.071Z,33.25
2023-05-23T07:53:34.912Z,41.75
2023-05-23T07:56:03.883Z,39.30
2023-05-23T07:58:36.151Z,36.72
2023-05-23T08:01:03.638Z,39.05
2023-05-23T08:03:54.320Z,36.60
2023-05-23T08:09:02.136Z,38.67
2023-05-23T08:11:31.131Z,37.70
2023-05-23T08:14:01.206Z,45.67
2023-05-23T08:16:38.782Z,46.08
2023-05-23T08:19:17.660Z,42.22
2023-05-23T08:21:45.981Z,70.18
2023-05-23T08:26:43.314Z,53.42
2023-05-23T08:29:13.048Z,55.92
2023-05-23T08:31:41.679Z,66.93
2023-05-23T08:34:09.900Z,56.60
2023-05-23T08:36:39.967Z,80.40
2023-05-23T08:39:11.221Z,101.75
2023-05-23T08:41:46.510Z,92.43
2023-05-23T08:44:14.588Z,104.40
2023-05-23T08:46:51.112Z,90.00
2023-05-23T08:49:38.840Z,102.43
2023-05-23T08:52:10.444Z,123.78
2023-05-23T08:54:38.151Z,145.82
2023-05-23T08:57:05.795Z,115.90
2023-05-23T08:59:39.995Z,111.13
2023-05-23T09:02:13.770Z,118.15
2023-05-23T09:04:41.378Z,85.57
2023-05-23T09:07:19.689Z,76.15
2023-05-23T09:09:48.751Z,78.72
2023-05-23T09:12:17.261Z,79.18
2023-05-23T09:14:47.159Z,133.50
2023-05-23T09:17:21.408Z,137.98
2023-05-23T09:19:48.924Z,150.45
2023-05-23T09:22:39.098Z,143.80
2023-05-23T09:25:15.085Z,147.45
2023-05-23T09:27:47.582Z,140.85
2023-05-23T09:30:16.139Z,86.10
2023-05-23T09:32:44.730Z,160.73
2023-05-23T09:35:14.129Z,190.90
2023-05-23T09:37:49.060Z,130.18
2023-05-23T09:40:16.831Z,132.60
2023-05-23T09:42:54.430Z,158.13
2023-05-23T09:45:21.860Z,165.38
2023-05-23T09:47:53.326Z,133.82
2023-05-23T09:50:22.269Z,188.57
2023-05-23T09:52:51.117Z,141.13
2023-05-23T09:55:19.544Z,160.38
2023-05-23T09:57:54.479Z,143.27
2023-05-23T10:00:21.874Z,135.82
2023-05-23T10:03:15.236Z,127.38
2023-05-23T10:05:51.876Z,152.63
2023-05-23T10:08:40.162Z,146.43
2023-05-23T10:11:13.491Z,144.52
2023-05-23T10:13:47.173Z,135.40
2023-05-23T10:16:48.223Z,103.68
2023-05-23T10:19:36.038Z,135.98
2023-05-23T10:22:10.991Z,134.98
2023-05-23T10:24:38.813Z,106.80
2023-05-23T10:27:07.710Z,134.20
2023-05-23T10:29:36.536Z,132.57
2023-05-23T10:32:06.341Z,82.70
2023-05-23T10:34:54.439Z,123.43
2023-05-23T10:37:50.684Z,121.10
2023-05-23T10:41:06.484Z,98.07
2023-05-23T10:44:18.509Z,130.98
2023-05-23T10:47:04.200Z,160.80
2023-05-23T10:49:42.695Z,132.20
2023-05-23T10:52:13.949Z,457.85
2023-05-23T10:54:48.953Z,92.68
2023-05-23T10:57:29.806Z,107.78
2023-05-23T10:59:57.254Z,105.90
2023-05-23T11:02:29.750Z,108.85
2023-05-23T11:05:21.142Z,109.68
2023-05-23T11:08:11.972Z,127.45
2023-05-23T11:11:02.914Z,131.18
2023-05-23T11:14:02.631Z,121.75
2023-05-23T11:16:51.188Z,102.57
2023-05-23T11:19:21.980Z,111.53
2023-05-23T11:22:01.917Z,146.43
2023-05-23T11:24:52.707Z,94.90
2023-05-23T11:27:36.219Z,91.60
2023-05-23T11:30:15.739Z,92.53
2023-05-23T11:32:52.560Z,106.13
2023-05-23T11:35:21.196Z,109.47
2023-05-23T11:37:49.025Z,131.15
2023-05-23T11:40:48.375Z,119.43
2023-05-23T11:43:19.963Z,113.38
2023-05-23T11:45:47.341Z,111.57
2023-05-23T11:48:17.677Z,143.27
2023-05-23T11:50:53.787Z,142.63
2023-05-23T11:53:25.531Z,112.13
2023-05-23T11:56:00.388Z,136.57
2023-05-23T11:58:39.556Z,130.23
2023-05-23T12:01:12.885Z,114.05
2023-05-23T12:03:49.851Z,110.95
2023-05-23T12:06:21.822Z,125.88
2023-05-23T12:08:49.095Z,122.78
2023-05-23T12:11:16.406Z,132.63
2023-05-23T12:13:44.757Z,117.97
2023-05-23T12:16:15.702Z,150.27
2023-05-23T12:18:43.573Z,133.07
2023-05-23T12:21:11.416Z,141.02
2023-05-23T12:23:41.986Z,138.70
2023-05-23T12:26:12.281Z,139.50
2023-05-23T12:28:43.479Z,133.45
2023-05-23T12:31:21.830Z,220.30
2023-05-23T12:33:52.819Z,166.98
2023-05-23T12:36:26.366Z,150.35
2023-05-23T12:38:54.174Z,150.15
2023-05-23T12:41:22.132Z,155.80
2023-05-23T12:43:55.940Z,141.68
2023-05-23T12:46:26.071Z,163.85
2023-05-23T12:48:54.756Z,151.95
2023-05-23T12:51:22.285Z,231.10
2023-05-23T12:53:49.711Z,146.65
2023-05-23T12:56:17.032Z,134.70
2023-05-23T12:58:44.277Z,134.27
2023-05-23T13:01:11.589Z,149.60
2023-05-23T13:03:39.053Z,141.10
2023-05-23T13:06:07.225Z,138.13
2023-05-23T13:08:34.469Z,148.93
2023-05-23T13:11:01.791Z,158.32
2023-05-23T13:13:29.804Z,151.10
2023-05-23T13:15:57.368Z,166.70
2023-05-23T13:18:25.091Z,153.90
2023-05-23T13:23:20.289Z,161.52
2023-05-23T13:25:47.817Z,156.23
2023-05-23T13:28:15.026Z,163.52
2023-05-23T13:30:44.168Z,155.45
2023-05-23T13:33:13.206Z,139.55
2023-05-23T13:35:40.829Z,138.68
2023-05-23T13:40:35.593Z,146.90
2023-05-23T13:45:31.008Z,139.00
2023-05-23T13:47:58.310Z,165.43
2023-05-23T13:50:26.204Z,136.38
2023-05-23T13:52:53.586Z,153.10
2023-05-23T13:55:21.233Z,149.15
2023-05-23T14:00:16.372Z,133.63
2023-05-23T14:02:43.962Z,135.57
2023-05-23T14:07:38.608Z,135.35
2023-05-23T14:10:07.140Z,134.02
2023-05-23T14:12:34.351Z,165.90
2023-05-23T14:15:01.692Z,135.35
2023-05-23T14:17:29.446Z,131.13
2023-05-23T14:19:56.734Z,140.50
2023-05-23T14:22:23.920Z,128.32
2023-05-23T14:24:51.169Z,132.18
2023-05-23T14:27:18.987Z,139.98
2023-05-23T14:29:47.382Z,152.40
2023-05-23T14:32:14.932Z,142.93
2023-05-23T14:34:42.196Z,141.52
2023-05-23T14:37:09.388Z,137.82
2023-05-23T14:39:36.690Z,155.38
2023-05-23T14:42:04.615Z,156.70
2023-05-23T14:44:31.849Z,158.45
2023-05-23T14:46:59.099Z,160.82
2023-05-23T14:49:26.375Z,155.65
2023-05-23T14:51:53.588Z,177.95
2023-05-23T14:54:20.849Z,165.13
2023-05-23T14:56:49.429Z,195.98
2023-05-23T14:59:18.426Z,175.80
2023-05-23T15:01:45.690Z,154.00
2023-05-23T15:04:14.147Z,164.48
2023-05-23T15:06:42.811Z,199.77
2023-05-23T15:09:10.670Z,166.07
2023-05-23T15:11:38.936Z,154.70
2023-05-23T15:14:06.613Z,166.57
2023-05-23T15:16:36.609Z,178.18
2023-05-23T15:19:05.728Z,171.50
2023-05-23T15:21:33.015Z,152.77
2023-05-23T15:24:00.419Z,173.68
2023-05-23T15:26:28.182Z,173.77
2023-05-23T15:31:23.577Z,165.88
2023-05-23T15:33:50.980Z,234.70
2023-05-23T15:36:18.218Z,149.88
2023-05-23T15:38:45.529Z,161.90
2023-05-23T15:41:13.015Z,179.85
2023-05-23T15:43:40.254Z,167.40
2023-05-23T15:46:07.541Z,234.38
2023-05-23T15:48:34.856Z,185.52
2023-05-23T15:51:02.056Z,156.93
2023-05-23T15:53:34.307Z,163.82
2023-05-23T15:56:04.708Z,181.65
2023-05-23T15:58:32.369Z,168.13
2023-05-23T16:03:26.644Z,165.05
2023-05-23T16:05:53.871Z,155.70
2023-05-23T16:08:21.170Z,168.57
2023-05-23T16:10:48.345Z,151.98
2023-05-23T16:13:17.831Z,153.93
2023-05-23T16:15:45.515Z,151.25
2023-05-23T16:18:12.745Z,150.38
2023-05-23T16:20:39.972Z,153.68
2023-05-23T16:23:07.170Z,140.48
2023-05-23T16:25:34.775Z,130.68
2023-05-23T16:28:02.226Z,150.02
2023-05-23T16:30:29.401Z,148.13
2023-05-23T16:32:56.686Z,145.98
2023-05-23T16:35:24.008Z,131.45
2023-05-23T16:37:51.177Z,139.95
2023-05-23T16:40:19.676Z,143.68
2023-05-23T16:42:47.043Z,130.65
2023-05-23T16:45:14.245Z,141.38
2023-05-23T16:47:41.676Z,137.88
2023-05-23T16:50:09.622Z,128.52
2023-05-23T16:52:36.933Z,158.18
2023-05-23T16:55:05.228Z,140.02
2023-05-23T16:57:32.476Z,157.70
2023-05-23T16:59:59.704Z,143.60
2023-05-23T17:02:27.057Z,140.63
2023-05-23T17:04:55.676Z,155.07
2023-05-23T17:07:22.875Z,264.75
2023-05-23T17:09:50.048Z,144.55
2023-05-23T17:12:17.274Z,160.07
2023-05-23T17:14:44.449Z,182.90
2023-05-23T17:17:11.652Z,172.23
2023-05-23T17:19:39.016Z,134.98
2023-05-23T17:22:07.786Z,136.20
2023-05-23T17:24:36.537Z,169.63
2023-05-23T17:27:04.146Z,127.75
2023-05-23T17:29:31.963Z,114.75
2023-05-23T17:31:59.212Z,109.82
2023-05-23T17:34:26.502Z,116.15
2023-05-23T17:36:53.707Z,102.28
2023-05-23T17:39:20.891Z,100.13
2023-05-23T17:41:48.134Z,90.63
2023-05-23T17:44:15.325Z,84.80
2023-05-23T17:46:42.617Z,75.13
2023-05-23T17:49:09.874Z,83.25
2023-05-23T17:51:37.030Z,85.88
2023-05-23T17:54:04.583Z,74.68
2023-05-23T17:56:31.979Z,78.90
2023-05-23T17:59:01.348Z,92.80
2023-05-23T18:01:29.114Z,110.03
2023-05-23T18:03:56.441Z,89.35
2023-05-23T18:06:23.646Z,92.70
2023-05-23T18:08:50.936Z,89.55
2023-05-23T18:11:18.218Z,86.25
2023-05-23T18:13:45.826Z,91.90
2023-05-23T18:16:13.075Z,80.85
2023-05-23T18:18:40.635Z,80.50
2023-05-23T18:21:08.652Z,72.75
2023-05-23T18:23:35.843Z,66.25
2023-05-23T18:26:03.214Z,84.60
2023-05-23T18:28:30.675Z,70.35
2023-05-23T18:30:57.848Z,58.22
2023-05-23T18:33:25.124Z,65.00
2023-05-23T18:35:52.488Z,69.78
2023-05-23T18:38:19.867Z,72.10
2023-05-23T18:40:47.094Z,95.40
2023-05-23T18:43:17.228Z,87.60
2023-05-23T18:45:44.685Z,78.47
2023-05-23T18:48:12.933Z,96.80
2023-05-23T18:50:40.327Z,80.40
2023-05-23T18:53:07.753Z,101.50
2023-05-23T18:55:36.308Z,97.50
2023-05-23T18:58:03.617Z,102.65
2023-05-23T19:00:30.898Z,91.40
2023-05-23T19:02:58.179Z,96.43
2023-05-23T19:05:26.860Z,93.68
2023-05-23T19:07:54.081Z,133.18
2023-05-23T19:10:21.933Z,153.50
2023-05-23T19:12:49.127Z,136.98
2023-05-23T19:15:16.314Z,108.32
2023-05-23T19:17:43.524Z,126.38
2023-05-23T19:20:12.049Z,107.15
2023-05-23T19:22:50.939Z,105.80
2023-05-23T19:25:21.471Z,112.25
2023-05-23T19:27:48.818Z,110.15
2023-05-23T19:30:16.686Z,109.13
2023-05-23T19:32:43.969Z,123.65
2023-05-23T19:35:11.994Z,123.93
2023-05-23T19:37:41.279Z,106.82
2023-05-23T19:40:09.788Z,113.00
2023-05-23T19:42:37.115Z,113.72
2023-05-23T19:45:05.151Z,134.63
2023-05-23T19:49:59.530Z,116.10
2023-05-23T19:52:26.752Z,97.40
2023-05-23T19:54:54.291Z,100.05
2023-05-23T19:57:21.457Z,124.35
2023-05-23T19:59:48.661Z,98.18
2023-05-23T20:02:15.877Z,107.60
2023-05-23T20:04:43.166Z,93.40
2023-05-23T20:07:10.947Z,106.53
2023-05-23T20:09:38.149Z,109.93
2023-05-23T20:12:06.108Z,93.05
2023-05-23T20:14:34.045Z,97.25
2023-05-23T20:17:01.257Z,122.30
2023-05-23T20:19:28.486Z,91.05
2023-05-23T20:21:56.715Z,93.00
2023-05-23T20:26:51.598Z,61.05
2023-05-23T20:29:18.783Z,63.25
2023-05-23T20:31:46.288Z,68.55
2023-05-23T20:34:13.699Z,59.90
2023-05-23T20:36:40.885Z,63.80
2023-05-23T20:39:09.613Z,68.05
2023-05-23T20:41:36.900Z,64.18
2023-05-23T20:44:04.082Z,59.42
2023-05-23T20:46:31.336Z,54.83
2023-05-23T20:48:59.404Z,55.65
2023-05-23T20:51:26.625Z,40.83
2023-05-23T20:53:53.814Z,56.10
2023-05-23T20:56:21.544Z,48.05
2023-05-23T20:58:49.039Z,40.00
2023-05-23T21:01:16.617Z,44.03
2023-05-23T21:03:43.977Z,39.20
2023-05-23T21:06:11.162Z,40.17
2023-05-23T21:08:38.354Z,37.15
2023-05-23T21:11:05.730Z,31.13
2023-05-23T21:13:32.934Z,33.53
2023-05-23T21:16:00.316Z,38.50
2023-05-23T21:18:27.578Z,32.00
2023-05-23T21:20:54.800Z,33.80
2023-05-23T21:23:22.018Z,38.45
2023-05-23T21:25:49.244Z,36.03
2023-05-23T21:28:16.523Z,40.67
2023-05-23T21:30:44.362Z,32.78
2023-05-23T21:33:12.587Z,34.97
2023-05-23T21:35:39.944Z,38.17
2023-05-23T21:38:07.379Z,28.65
2023-05-23T21:40:34.552Z,30.63
2023-05-23T21:43:01.718Z,28.25
2023-05-23T21:45:28.985Z,27.52
2023-05-23T21:47:56.287Z,31.95
2023-05-23T21:50:23.548Z,28.83
2023-05-23T21:52:50.727Z,28.98
2023-05-23T21:55:17.926Z,35.85
2023-05-23T21:57:45.318Z,30.35
2023-05-23T22:00:13.643Z,36.70
2023-05-23T22:02:41.320Z,27.42
2023-05-23T22:05:09.100Z,32.78
2023-05-23T22:07:36.631Z,28.60
2023-05-23T22:10:04.099Z,23.77
2023-05-23T22:12:32.163Z,29.48
2023-05-23T22:14:59.439Z,25.40
2023-05-23T22:17:26.757Z,28.10
2023-05-23T22:19:55.737Z,33.55
2023-05-23T22:22:23.095Z,30.15
2023-05-23T22:24:50.327Z,29.75
2023-05-23T22:27:17.784Z,27.67
2023-05-23T22:29:45.116Z,27.83
2023-05-23T22:32:12.472Z,24.83
2023-05-23T22:34:39.671Z,25.23
2023-05-23T22:37:07.273Z,24.58
2023-05-23T22:39:34.525Z,27.83
2023-05-23T22:42:01.966Z,29.92
2023-05-23T22:44:29.588Z,26.60
2023-05-23T22:46:59.749Z,30.35
2023-05-23T22:49:30.007Z,23.75
2023-05-23T22:51:57.969Z,30.63
2023-05-23T22:54:25.207Z,28.98
2023-05-23T22:56:53.024Z,25.42
2023-05-23T22:59:20.443Z,33.00
2023-05-23T23:01:47.727Z,40.67
2023-05-23T23:04:15.072Z,29.45
2023-05-23T23:06:43.241Z,26.90
2023-05-23T23:09:10.487Z,27.88
2023-05-23T23:11:37.679Z,28.90
2023-05-23T23:14:04.996Z,35.63
2023-05-23T23:16:32.307Z,33.22
2023-05-23T23:18:59.557Z,35.40
2023-05-23T23:21:26.853Z,29.77
2023-05-23T23:23:54.110Z,32.95
2023-05-23T23:26:22.077Z,32.25
2023-05-23T23:28:49.281Z,30.73
2023-05-23T23:31:16.638Z,33.67
2023-05-23T23:33:43.885Z,29.15
2023-05-23T23:36:11.163Z,31.45
2023-05-23T23:38:38.507Z,46.88
2023-05-23T23:41:05.793Z,33.15
2023-05-23T23:43:33.032Z,34.70
2023-05-23T23:46:00.378Z,38.80
2023-05-23T23:48:27.619Z,33.03
2023-05-23T23:50:54.800Z,32.70
2023-05-23T23:53:22.043Z,34.83
2023-05-23T23:55:50.106Z,41.28
2023-05-23T23:58:17.477Z,35.17
